Wednesday, August 15, 2018, 8:44 AM GMT
Back to Local

CYQI, Yarmouth, N. S.

Location: , , Canada Lat: 43.833
Local Time: 8:44 AM GMT ( 8:44 GMT) Lon: -66.083
Time Zone: GMT Elev: 141 ft

Show me the last for .
Show Decoded

2018-08-15 08:00 METAR CYQI 150800Z 17005KT 1/8SM FG VV001 18/18 A2988 RMK FG8 SLP121 DENSITY ALT
                 700FT =
2018-08-15 07:00 METAR CYQI 150700Z 15003KT 1/4SM FG VV002 18/18 A2989 RMK FG8 SLP123 DENSITY ALT
                 700FT =
2018-08-15 06:00 METAR CYQI 150600Z 16002KT 1/8SM FG VV001 18/18 A2989 RMK FG8 SLP125 DENSITY ALT
                 600FT =
2018-08-15 05:00 METAR CYQI 150500Z 18004KT 1/4SM FG VV001 18/18 A2990 RMK FG8 SLP128 DENSITY ALT
                 600FT =
2018-08-15 04:00 METAR CYQI 150400Z 19005KT 1/4SM FG VV002 18/18 A2992 RMK FG8 SLP132 DENSITY ALT
                 500FT =
2018-08-15 03:00 METAR CYQI 150300Z 17005KT 1/8SM FG VV001 18/18 A2992 RMK FG8 SLP132 DENSITY ALT
                 500FT =
2018-08-15 02:38 METAR CYQI 150238Z 18006KT 3/8SM FG VV002 18/18 A2992 RMK FG8 SLP132 DENSITY ALT
                 500FT =
2018-08-15 02:14 METAR CYQI 150214Z 18006KT 3/4SM BR VV002 18/18 A2992 RMK FG8 SLP132 DENSITY ALT
                 500FT =
2018-08-15 02:07 METAR CYQI 150207Z 18006KT 1SM BR VV002 18/18 A2992 RMK FG8 SLP132 DENSITY ALT
                 500FT =
2018-08-15 02:00 METAR CYQI 150200Z 19006KT 2SM -DZ BR OVC002 18/18 A2992 RMK FG4SF4 SLP133
                 DENSITY ALT 500FT =
2018-08-15 01:48 METAR CYQI 150148Z 16006KT 2SM -DZ BR OVC006 18/18 A2992 RMK FG2SF6 SLP133
                 DENSITY ALT 500FT =
2018-08-15 01:24 METAR CYQI 150124Z 17007KT 1SM -DZ BR OVC007 18/18 A2993 RMK FG6SF2 SLP136
                 DENSITY ALT 500FT =
2018-08-15 01:00 METAR CYQI 150100Z 18004KT 3/4SM BR VV003 18/18 A2994 RMK FG8 SLP139 DENSITY ALT
                 600FT =
2018-08-15 00:00 METAR CYQI 150000Z 19005KT 1/4SM FG VV002 18/18 A2992 RMK FG8 SLP133 DENSITY ALT
                 600FT =
2018-08-14 23:00 METAR CYQI 142300Z 18005KT 1/8SM FG VV002 19/19 A2991 RMK FG8 SLP131 DENSITY ALT
                 700FT =
2018-08-14 22:07 METAR CYQI 142207Z 17003KT 3/8SM FG OVC006 20/20 A2992 RMK FG7ST1 SLP133 DENSITY
                 ALT 800FT =
2018-08-14 22:00 METAR CYQI 142200Z 18004KT 1/2SM FG OVC006 20/20 A2992 RMK FG7ST1 SLP133 DENSITY
                 ALT 800FT =
2018-08-14 21:42 METAR CYQI 142142Z 17005KT 1/2SM FG OVC007 20/20 A2992 RMK FG7ST1 SLP133 DENSITY
                 ALT 800FT =
2018-08-14 21:39 METAR CYQI 142139Z 17005KT 5/8SM BR OVC007 20/20 A2992 RMK FG7ST1 SLP133 DENSITY
                 ALT 800FT =
2018-08-14 21:36 METAR CYQI 142136Z 16005KT 3/4SM BR OVC007 20/20 A2992 RMK FG7ST1 SLP132 DENSITY
                 ALT 800FT =
2018-08-14 21:08 METAR CYQI 142108Z 18005KT 1SM BR OVC003 22/21 A2992 RMK FG6ST2 SLP133 DENSITY
                 ALT 1000FT =
2018-08-14 21:00 METAR CYQI 142100Z 18005KT 1 1/2SM BR OVC003 21/21 A2992 RMK FG6ST2 VIS NE 4
                 SLP134 DENSITY ALT 1000FT =
2018-08-14 20:17 METAR CYQI 142017Z 15005KT 1 1/2SM BR OVC004 22/21 A2991 RMK FG4ST4 SLP130
                 DENSITY ALT 1100FT =
2018-08-14 20:00 METAR CYQI 142000Z 18005KT 160V250 1SM BR OVC004 23/21 A2992 RMK FG6ST2 SLP135
                 DENSITY ALT 1100FT =
2018-08-14 19:32 METAR CYQI 141932Z 17006KT 1 1/2SM BR OVC004 23/21 A2993 RMK FG5ST3 SLP136
                 DENSITY ALT 1100FT =
2018-08-14 19:00 METAR CYQI 141900Z 16006KT 2SM BR OVC005 23/21 A2993 RMK FG2ST6 VIS NE 6 SLP137
                 DENSITY ALT 1100FT =
2018-08-14 18:11 METAR CYQI 141811Z 19010KT 2 1/2SM BR OVC008 23/22 A2994 RMK FG4ST4 VIS NW-N 6
                 SLP140 DENSITY ALT 1100FT =
2018-08-14 18:00 METAR CYQI 141800Z 18008KT 9SM SCT004 BKN066 24/23 A2994 RMK ST4AC3 VIS SE-SW
                 21/2 SLP138 DENSITY ALT 1300FT =
2018-08-14 17:00 METAR CYQI 141700Z 19008KT 9SM SCT004 BKN012 BKN066 24/22 A2995 RMK ST4SC2AC1
                 SLP142 DENSITY ALT 1200FT =
2018-08-14 16:23 METAR CYQI 141623Z 18008KT 9SM SCT006 BKN110 24/22 A2994 RMK SC3AC3 SLP141
                 DENSITY ALT 1300FT =
2018-08-14 16:00 METAR CYQI 141600Z 18006KT 6SM BR FEW002 OVC005 24/23 A2995 RMK FG1SF1ST6 SLP143
                 DENSITY ALT 1200FT =
2018-08-14 15:42 METAR CYQI 141542Z 17006KT 3SM BR FEW002 SCT003 OVC006 22/22 A2995 RMK SF1ST3SC4
                 SLP144 DENSITY ALT 1000FT =
2018-08-14 15:23 METAR CYQI 141523Z 17007KT 2SM BR FEW002 OVC005 22/22 A2996 RMK FG1SF1ST6 VIS
                 S-SW 3/4 SLP147 DENSITY ALT 1000FT =
2018-08-14 15:07 METAR CYQI 141507Z 17006KT 1 1/2SM BR OVC005 22/22 A2997 RMK FG2ST6 VIS SW 3/4
                 SLP149 DENSITY ALT 1000FT =
2018-08-14 15:00 METAR CYQI 141500Z 18006KT 1SM BR OVC005 22/22 A2997 RMK FG3ST5 SLP151 DENSITY
                 ALT 1000FT =
2018-08-14 14:21 METAR CYQI 141421Z 16006KT 3/4SM BR OVC006 22/21 A2997 RMK FG5ST3 SLP151 DENSITY
                 ALT 900FT =
2018-08-14 14:19 METAR CYQI 141419Z 16006KT 5/8SM BR OVC006 22/22 A2997 RMK FG5ST3 SLP151 DENSITY
                 ALT 900FT =
2018-08-14 14:11 METAR CYQI 141411Z 16007KT 1/2SM FG OVC006 21/21 A2997 RMK FG5ST3 SLP152 DENSITY
                 ALT 900FT =
2018-08-14 14:00 METAR CYQI 141400Z 16008KT 3/8SM FG OVC006 21/21 A2997 RMK FG6ST2 SLP152 DENSITY
                 ALT 900FT =
2018-08-14 13:00 METAR CYQI 141300Z 15009KT 1/4SM FG OVC006 22/22 A2997 RMK FG7ST1 SLP149 DENSITY
                 ALT 1000FT =
2018-08-14 12:50 METAR CYQI 141250Z 16008KT 3/8SM FG OVC006 22/22 A2996 RMK FG7ST1 SLP148 DENSITY
                 ALT 1000FT =
2018-08-14 12:39 METAR CYQI 141239Z 14009KT 1/2SM FG OVC006 22/22 A2996 RMK FG7ST1 SLP147 DENSITY
                 ALT 1000FT =
2018-08-14 12:38 METAR CYQI 141238Z 13010KT 5/8SM BR OVC006 22/22 A2996 RMK FG7ST1 SLP147 DENSITY
                 ALT 1000FT =
2018-08-14 12:37 METAR CYQI 141237Z 14010KT 3/4SM BR OVC006 22/22 A2996 RMK FG7ST1 SLP148 DENSITY
                 ALT 1000FT =
2018-08-14 12:00 METAR CYQI 141200Z 17007KT 1SM BR OVC006 22/22 A2997 RMK FG6ST2 SLP151 DENSITY
                 ALT 1000FT =
2018-08-14 11:35 METAR CYQI 141135Z 15006KT 1SM BR OVC003 22/22 A2997 RMK FG5ST3 SLP149 DENSITY
                 ALT 900FT =
2018-08-14 11:11 METAR CYQI 141111Z 11005KT 070V140 2SM -SHRA BR OVC002 21/21 A2997 RMK SF8 CVCTV
                 CLD EMBD SLP149 DENSITY ALT 900FT =
2018-08-14 11:02 METAR CYQI 141102Z 12004KT 080V150 2SM SHRA BR OVC002 21/21 A2997 RMK SF8 CVCTV
                 CLD EMBD SLP150 DENSITY ALT 900FT =
2018-08-14 11:00 METAR CYQI 141100Z 12004KT 2SM -SHRA BR OVC002 21/21 A2997 RMK SF8 CVCTV CLD
                 EMBD SLP150 DENSITY ALT 900FT =
2018-08-14 10:00 METAR CYQI 141000Z 09005KT 2SM -SHRA BR SCT003 21/20 A2997 RMK SF3 CVCTV CLD
                 EMBD SLP150 DENSITY ALT 800FT =
2018-08-14 09:40 METAR CYQI 140940Z 08005KT 4SM -SHRA BR OVC003 21/20 A2997 RMK SF8 CVCTV CLD
                 EMBD SLP151 DENSITY ALT 800FT =
2018-08-14 09:00 METAR CYQI 140900Z 08006KT 9SM OVC004 20/20 A2997 RMK SF8 SLP151 DENSITY ALT
                 800FT =

Support USWX by starting your Amazon purchase here.